Time;durP1;ratioP1;P1;durP2;ratioP2;P2;SDS_P1;SDS_P2;PMS_P1;PMS_P2;Temp;Humidity;BMP_temperature;BMP_pressure;BME280_temperature;BME280_humidity;BME280_pressure;Samples;Min_cycle;Max_cycle;Signal;HPM_P1;HPM_P2
2023/04/13 00:00:31;;;;;;;11.43;5.30;;;;;;;7.86;65.49;101080.28;5046489;28;20046;-70
2023/04/13 00:02:59;;;;;;;12.43;7.15;;;;;;;7.85;65.62;101084.63;5041466;28;20056;-70
2023/04/13 00:05:26;;;;;;;16.23;6.25;;;;;;;7.84;65.64;101090.69;5046431;28;20055;-70
2023/04/13 00:07:54;;;;;;;8.98;6.53;;;;;;;7.79;66.11;101087.22;5049215;28;20051;-70
2023/04/13 00:10:22;;;;;;;9.00;6.90;;;;;;;7.81;66.35;101072.47;5051483;28;20515;-71
2023/04/13 00:12:50;;;;;;;8.63;6.85;;;;;;;7.75;65.91;101059.50;5045544;28;20152;-70
2023/04/13 00:15:19;;;;;;;7.95;5.85;;;;;;;7.81;65.97;101067.28;5040801;28;20124;-70
2023/04/13 00:17:47;;;;;;;10.20;6.53;;;;;;;7.75;65.98;101051.69;5043601;28;20069;-70
2023/04/13 00:20:14;;;;;;;6.60;5.40;;;;;;;7.79;66.56;101063.81;5040766;28;20057;-70
2023/04/13 00:22:42;;;;;;;9.52;7.00;;;;;;;7.80;66.33;101049.97;5039136;28;20064;-70
2023/04/13 00:25:13;;;;;;;11.38;6.57;;;;;;;7.79;66.45;101047.34;5043861;28;20057;-70
2023/04/13 00:27:41;;;;;;;9.15;6.13;;;;;;;7.79;66.48;101048.19;5048671;28;20045;-70
2023/04/13 00:30:10;;;;;;;10.05;6.97;;;;;;;7.75;66.19;101040.44;5043460;28;20501;-69
2023/04/13 00:32:39;;;;;;;10.63;6.15;;;;;;;7.72;66.33;101036.09;5046410;28;20072;-70
2023/04/13 00:35:07;;;;;;;10.40;6.45;;;;;;;7.77;66.13;101038.66;5038244;28;20050;-70
2023/04/13 00:37:34;;;;;;;9.15;6.45;;;;;;;7.77;65.99;101025.66;5045609;28;20045;-70
2023/04/13 00:40:02;;;;;;;10.13;6.93;;;;;;;7.75;66.01;101028.28;5047590;28;20065;-70
2023/04/13 00:42:28;;;;;;;9.00;6.32;;;;;;;7.75;66.08;101025.69;5051076;28;20049;-70
2023/04/13 00:44:55;;;;;;;8.63;6.65;;;;;;;7.75;66.37;101012.69;5043265;28;20048;-70
2023/04/13 00:47:27;;;;;;;8.75;5.90;;;;;;;7.69;66.31;100999.72;5041058;28;20052;-70
2023/04/13 00:49:57;;;;;;;8.48;6.13;;;;;;;7.74;65.96;101002.28;5043414;28;20069;-70
2023/04/13 00:52:24;;;;;;;8.23;6.63;;;;;;;7.72;65.86;101004.91;5045041;28;20050;-70
2023/04/13 00:54:51;;;;;;;10.55;6.35;;;;;;;7.72;66.31;100997.09;5045168;28;20509;-70
2023/04/13 00:57:20;;;;;;;7.70;6.00;;;;;;;7.75;66.11;100999.69;5045588;28;20387;-69
2023/04/13 00:59:48;;;;;;;11.85;5.47;;;;;;;7.75;66.61;100999.69;5042776;28;20127;-70
2023/04/13 01:02:15;;;;;;;7.10;5.75;;;;;;;7.76;66.33;100991.00;5040890;28;20052;-70
2023/04/13 01:04:44;;;;;;;9.07;5.40;;;;;;;7.77;66.44;100982.34;5039113;28;20055;-70
2023/04/13 01:07:21;;;;;;;10.88;5.28;;;;;;;7.75;66.40;100965.88;5045289;28;20543;-70
2023/04/13 01:09:56;;;;;;;9.60;5.13;;;;;;;7.80;66.39;100966.72;5042686;28;20045;-70
2023/04/13 01:12:31;;;;;;;6.35;5.05;;;;;;;7.84;66.00;100962.38;5040492;28;20059;-69
2023/04/13 01:15:05;;;;;;;6.80;4.38;;;;;;;7.85;65.75;100959.78;5040989;28;20493;-70
2023/04/13 01:17:36;;;;;;;5.50;4.25;;;;;;;7.88;65.86;100964.09;5045716;28;20056;-70
2023/04/13 01:20:09;;;;;;;5.40;4.20;;;;;;;7.90;65.98;100962.34;5045563;28;20045;-70
2023/04/13 01:22:40;;;;;;;6.00;4.28;;;;;;;7.91;65.99;100968.41;5040550;28;20073;-70
2023/04/13 01:25:26;;;;;;;7.57;4.60;;;;;;;7.93;66.13;100977.06;5041884;28;20056;-70
2023/04/13 01:27:58;;;;;;;8.07;4.60;;;;;;;7.93;65.92;100970.13;5036607;28;20502;-70
2023/04/13 01:30:27;;;;;;;5.80;4.40;;;;;;;7.90;65.98;100957.16;5044879;28;20449;-70
2023/04/13 01:32:55;;;;;;;7.00;4.00;;;;;;;7.92;66.38;100964.97;5048234;28;20509;-69
2023/04/13 01:35:24;;;;;;;6.28;4.05;;;;;;;7.93;65.98;100961.47;5038670;28;20054;-69
2023/04/13 01:37:52;;;;;;;5.75;3.40;;;;;;;7.88;66.31;100943.28;5039069;28;20548;-70
2023/04/13 01:40:19;;;;;;;6.63;3.60;;;;;;;7.96;66.35;100943.25;5041897;28;20529;-69
2023/04/13 01:42:46;;;;;;;7.05;3.38;;;;;;;7.97;66.07;100939.75;5042862;28;20060;-69
2023/04/13 01:45:18;;;;;;;4.93;3.95;;;;;;;8.00;66.54;100947.59;5037692;28;20081;-70
2023/04/13 01:47:53;;;;;;;5.60;3.85;;;;;;;8.02;66.31;100951.00;5048581;28;20386;-70
2023/04/13 01:50:27;;;;;;;7.68;3.58;;;;;;;8.04;66.78;100954.47;5036871;28;20052;-70
2023/04/13 01:52:56;;;;;;;3.78;3.22;;;;;;;8.05;66.86;100964.00;5044611;28;20049;-70
2023/04/13 01:55:24;;;;;;;3.95;3.10;;;;;;;8.00;66.77;100956.25;5044125;28;20044;-70
2023/04/13 01:57:53;;;;;;;4.85;3.47;;;;;;;8.02;66.97;100959.69;5044885;28;20763;-70
2023/04/13 02:00:22;;;;;;;10.18;4.45;;;;;;;8.04;67.16;100967.50;5039038;28;20056;-70
2023/04/13 02:02:49;;;;;;;4.78;2.95;;;;;;;8.04;67.56;100962.28;5049054;28;20064;-70
2023/04/13 02:05:15;;;;;;;5.15;3.35;;;;;;;8.04;67.07;100967.50;5041563;28;20064;-70
2023/04/13 02:07:43;;;;;;;6.88;3.70;;;;;;;8.04;67.48;100964.88;5035961;28;20044;-70
2023/04/13 02:10:11;;;;;;;9.00;2.97;;;;;;;8.05;67.25;100966.59;5038506;28;20077;-72
2023/04/13 02:12:38;;;;;;;5.93;3.72;;;;;;;8.05;67.33;100964.00;5042092;28;20042;-72
2023/04/13 02:15:05;;;;;;;6.65;3.53;;;;;;;8.07;67.25;100972.66;5040749;28;20056;-71
2023/04/13 02:17:33;;;;;;;11.15;3.58;;;;;;;8.08;67.14;100961.38;5038594;28;20045;-72
2023/04/13 02:20:00;;;;;;;3.42;3.13;;;;;;;8.06;67.41;100961.41;5044580;28;20505;-71
2023/04/13 02:22:27;;;;;;;5.63;3.22;;;;;;;8.06;67.19;100960.56;5042506;28;20054;-72
2023/04/13 02:24:55;;;;;;;5.28;2.85;;;;;;;8.10;66.79;100954.44;5043000;28;20084;-71
2023/04/13 02:27:23;;;;;;;4.80;2.35;;;;;;;8.11;66.66;100958.75;5043945;28;20081;-72
2023/04/13 02:29:51;;;;;;;3.35;2.95;;;;;;;8.12;66.69;100957.91;5040419;28;20517;-72
2023/04/13 02:32:19;;;;;;;3.97;2.33;;;;;;;8.18;66.59;100968.28;5041118;28;20045;-76
2023/04/13 02:34:47;;;;;;;8.40;2.67;;;;;;;8.19;66.39;100969.13;5044158;28;20057;-78
2023/04/13 02:37:14;;;;;;;5.57;2.65;;;;;;;8.19;66.14;100963.94;5041746;28;20060;-77
2023/04/13 02:39:41;;;;;;;4.35;2.63;;;;;;;8.22;66.04;100969.97;5046657;28;20061;-77
2023/04/13 02:42:09;;;;;;;7.43;2.70;;;;;;;8.19;65.96;100961.34;5045367;28;20053;-76
2023/04/13 02:44:37;;;;;;;3.15;2.65;;;;;;;8.22;65.99;100969.13;5043607;28;20057;-77
2023/04/13 02:47:05;;;;;;;5.07;2.72;;;;;;;8.21;66.21;100977.81;5036825;28;20478;-79
2023/04/13 02:49:32;;;;;;;5.38;2.45;;;;;;;8.19;65.78;100980.41;5046811;28;20107;-77
2023/04/13 02:52:00;;;;;;;4.13;2.88;;;;;;;8.06;66.05;100952.75;5042778;28;20049;-76
2023/04/13 02:54:28;;;;;;;3.97;2.58;;;;;;;8.15;65.88;100968.28;5045774;28;20045;-77
2023/04/13 02:56:55;;;;;;;3.60;2.90;;;;;;;8.17;66.09;100970.88;5048151;28;20041;-78
2023/04/13 02:59:22;;;;;;;5.32;2.08;;;;;;;8.16;66.03;100977.81;5046640;28;20551;-77
2023/04/13 03:01:49;;;;;;;4.40;3.63;;;;;;;8.11;65.84;100972.66;5044292;28;20045;-76
2023/04/13 03:04:16;;;;;;;8.48;2.85;;;;;;;8.08;66.04;100966.59;5044538;28;20088;-77
2023/04/13 03:06:43;;;;;;;7.38;2.95;;;;;;;8.13;66.48;100980.44;5038132;28;20770;-80
2023/04/13 03:09:12;;;;;;;3.78;2.50;;;;;;;8.10;66.22;100986.53;5040983;28;20082;-76
2023/04/13 03:11:39;;;;;;;5.07;2.55;;;;;;;8.09;66.25;100989.16;5041595;28;20049;-77
2023/04/13 03:14:06;;;;;;;3.72;2.72;;;;;;;8.08;66.17;100984.81;5041678;28;20111;-77
2023/04/13 03:16:33;;;;;;;4.75;3.00;;;;;;;8.08;66.62;100982.19;5045580;28;20059;-77
2023/04/13 03:19:00;;;;;;;3.15;2.47;;;;;;;8.08;66.70;100987.41;5040990;28;20050;-78
2023/04/13 03:21:27;;;;;;;4.53;2.90;;;;;;;8.09;66.27;100991.75;5047690;28;20655;-77
2023/04/13 03:23:53;;;;;;;4.55;3.30;;;;;;;8.06;66.45;100984.81;5045195;28;20584;-77
2023/04/13 03:26:23;;;;;;;5.00;3.33;;;;;;;8.05;66.50;100962.28;5044391;28;20051;-76
2023/04/13 03:28:50;;;;;;;4.40;3.60;;;;;;;8.09;66.29;100992.63;5049234;28;20044;-76
2023/04/13 03:31:17;;;;;;;6.63;3.42;;;;;;;8.10;66.15;100999.53;5040489;28;20410;-78
2023/04/13 03:33:44;;;;;;;5.50;3.53;;;;;;;8.11;66.50;100997.78;5042228;28;20378;-75
2023/04/13 03:36:11;;;;;;;8.55;2.80;;;;;;;8.12;66.71;101004.75;5042854;28;20045;-76
2023/04/13 03:38:38;;;;;;;6.10;3.50;;;;;;;8.11;66.31;101003.88;5043235;28;20524;-78
2023/04/13 03:41:06;;;;;;;7.35;3.08;;;;;;;8.12;66.37;101002.16;5045639;28;20064;-77
2023/04/13 03:43:34;;;;;;;8.18;3.72;;;;;;;8.10;66.50;100998.69;5048676;28;20050;-78
2023/04/13 03:46:01;;;;;;;8.18;4.38;;;;;;;8.12;66.87;101017.75;5049769;28;20524;-77
2023/04/13 03:48:28;;;;;;;4.68;3.85;;;;;;;8.09;67.05;101012.56;5047783;28;20053;-77
2023/04/13 03:50:55;;;;;;;7.95;3.95;;;;;;;8.07;66.71;101022.09;5045152;28;20408;-78
2023/04/13 03:53:22;;;;;;;7.65;4.20;;;;;;;8.05;66.92;101021.25;5053345;28;20053;-78
2023/04/13 03:55:49;;;;;;;4.90;3.47;;;;;;;7.95;67.05;100997.00;5050449;28;20051;-78
2023/04/13 03:58:16;;;;;;;6.78;2.85;;;;;;;8.00;67.03;101010.00;5048168;28;20210;-77
2023/04/13 04:00:44;;;;;;;11.88;3.65;;;;;;;8.00;66.84;101015.22;5056575;28;20124;-78
2023/04/13 04:03:11;;;;;;;7.22;3.63;;;;;;;7.98;66.84;101012.59;5036683;28;20053;-78
2023/04/13 04:05:38;;;;;;;6.63;3.92;;;;;;;7.97;66.70;101023.91;5040117;28;20049;-78
2023/04/13 04:08:05;;;;;;;4.63;3.78;;;;;;;7.96;67.68;101029.09;5045084;28;20055;-80
2023/04/13 04:10:32;;;;;;;9.52;4.00;;;;;;;7.91;66.84;101026.50;5051262;28;20404;-78
2023/04/13 04:12:59;;;;;;;5.78;3.60;;;;;;;7.91;67.26;101028.22;5044725;28;20095;-77
2023/04/13 04:15:26;;;;;;;9.73;3.50;;;;;;;7.92;67.22;101035.19;5048720;28;20059;-78
2023/04/13 04:17:54;;;;;;;7.75;4.10;;;;;;;7.89;66.91;101034.31;5045761;28;20052;-77
2023/04/13 04:20:24;;;;;;;8.80;3.60;;;;;;;7.77;66.93;101010.06;5038520;28;20698;-78
2023/04/13 04:22:54;;;;;;;6.85;3.40;;;;;;;7.87;66.60;101029.97;5050613;28;20051;-78
2023/04/13 04:25:22;;;;;;;7.82;4.15;;;;;;;7.85;66.75;101023.91;5048165;28;20056;-78
2023/04/13 04:27:50;;;;;;;7.90;3.85;;;;;;;7.85;66.19;101035.22;5055811;28;20053;-79
2023/04/13 04:30:20;;;;;;;7.80;3.42;;;;;;;7.85;66.23;101027.41;5042361;28;20056;-77
2023/04/13 04:32:47;;;;;;;5.95;3.83;;;;;;;7.82;66.16;101030.00;5049751;28;20073;-78
2023/04/13 04:35:19;;;;;;;6.35;3.65;;;;;;;7.78;65.90;101027.41;5049294;28;20045;-78
2023/04/13 04:37:48;;;;;;;6.40;2.90;;;;;;;7.83;65.76;101033.47;5046420;28;20136;-78
2023/04/13 04:40:16;;;;;;;5.78;3.65;;;;;;;7.79;65.59;101027.41;5044130;28;20087;-78
2023/04/13 04:42:43;;;;;;;5.10;2.92;;;;;;;7.80;65.13;101029.16;5041071;28;20046;-79
2023/04/13 04:45:10;;;;;;;6.20;2.83;;;;;;;7.73;64.92;101001.41;5039496;28;20508;-78
2023/04/13 04:47:40;;;;;;;5.13;3.10;;;;;;;7.79;65.43;101037.81;5037031;28;20050;-77
2023/04/13 04:50:08;;;;;;;6.85;3.03;;;;;;;7.80;65.57;101039.56;5046060;28;20136;-79
2023/04/13 04:52:37;;;;;;;7.13;3.10;;;;;;;7.75;65.55;101027.44;5051625;28;20131;-78
2023/04/13 04:55:05;;;;;;;9.80;3.72;;;;;;;7.74;65.10;101034.38;5044466;28;20053;-78
2023/04/13 04:57:33;;;;;;;5.50;3.13;;;;;;;7.76;65.32;101049.94;5050522;28;20048;-77
2023/04/13 05:00:00;;;;;;;5.65;2.88;;;;;;;7.73;65.53;101030.03;5043480;28;20045;-78
2023/04/13 05:02:27;;;;;;;6.25;3.20;;;;;;;7.73;65.07;101053.41;5047204;28;20642;-78
2023/04/13 05:04:54;;;;;;;8.13;2.83;;;;;;;7.72;65.13;101038.69;5049338;28;20398;-78
2023/04/13 05:07:21;;;;;;;4.97;3.22;;;;;;;7.72;64.67;101056.91;5043777;28;20515;-77
2023/04/13 05:09:50;;;;;;;3.53;2.67;;;;;;;7.69;64.79;101059.50;5052034;28;20417;-77
2023/04/13 05:12:19;;;;;;;8.10;3.85;;;;;;;7.61;64.93;101043.91;5044762;28;20467;-78
2023/04/13 05:14:47;;;;;;;6.35;3.47;;;;;;;7.64;64.89;101053.44;5051875;28;20781;-78
2023/04/13 05:17:16;;;;;;;9.27;3.78;;;;;;;7.61;64.59;101058.66;5044463;28;20452;-78
2023/04/13 05:19:43;;;;;;;15.15;5.20;;;;;;;7.56;64.31;101055.19;5043365;28;20052;-78
2023/04/13 05:22:11;;;;;;;7.00;3.13;;;;;;;7.43;64.24;101013.63;5047458;28;20053;-78
2023/04/13 05:24:38;;;;;;;6.82;3.33;;;;;;;7.48;64.67;101046.53;5049163;28;20057;-79
2023/04/13 05:27:08;;;;;;;9.55;3.53;;;;;;;7.38;64.59;101036.16;5049970;28;20490;-77
2023/04/13 05:29:35;;;;;;;7.55;2.80;;;;;;;7.41;64.56;101062.16;5046121;28;20046;-79
2023/04/13 05:32:02;;;;;;;7.63;2.50;;;;;;;7.42;65.06;101095.06;5039109;28;20457;-79
2023/04/13 05:34:31;;;;;;;6.35;3.08;;;;;;;7.39;64.82;101089.00;5038784;28;20059;-78
2023/04/13 05:36:58;;;;;;;13.77;3.08;;;;;;;7.47;64.89;101091.59;5052257;28;20128;-79
2023/04/13 05:39:25;;;;;;;5.85;2.80;;;;;;;7.50;64.79;101095.06;5050971;28;20053;-78
2023/04/13 05:41:52;;;;;;;12.45;3.22;;;;;;;7.51;64.73;101082.91;5051198;28;20061;-78
2023/04/13 05:44:21;;;;;;;7.82;3.63;;;;;;;7.50;64.86;101065.59;5039869;28;20055;-78
2023/04/13 05:46:49;;;;;;;9.18;3.20;;;;;;;7.53;64.79;101076.00;5042242;28;20736;-78
2023/04/13 05:49:16;;;;;;;5.85;3.05;;;;;;;7.54;64.78;101075.13;5040749;28;20056;-78
2023/04/13 05:51:45;;;;;;;10.23;3.08;;;;;;;7.52;64.65;101087.28;5040191;28;20589;-80
2023/04/13 05:54:12;;;;;;;10.23;2.50;;;;;;;7.47;64.64;101094.19;5045610;28;20044;-79
2023/04/13 05:56:39;;;;;;;5.57;2.70;;;;;;;7.51;64.45;101108.91;5043324;28;20048;-79
2023/04/13 05:59:07;;;;;;;10.00;3.33;;;;;;;7.53;64.59;101108.06;5047190;28;20048;-79
2023/04/13 06:01:36;;;;;;;9.23;3.40;;;;;;;7.53;64.45;101097.66;5047751;28;20045;-83
2023/04/13 06:04:04;;;;;;;11.68;3.92;;;;;;;7.48;63.90;101077.72;5046979;28;20060;-78
2023/04/13 06:06:31;;;;;;;18.38;6.03;;;;;;;7.52;64.19;101077.75;5046544;28;20049;-79
2023/04/13 06:08:58;;;;;;;12.20;3.08;;;;;;;7.51;64.23;101088.13;5043243;28;20050;-78
2023/04/13 06:11:26;;;;;;;15.43;5.57;;;;;;;7.52;64.17;101095.06;5044746;28;20077;-78
2023/04/13 06:13:53;;;;;;;10.15;2.95;;;;;;;7.49;64.01;101101.13;5053207;28;20490;-79
2023/04/13 06:16:21;;;;;;;11.05;3.13;;;;;;;7.46;64.31;101095.06;5050297;28;20052;-79
2023/04/13 06:18:50;;;;;;;10.65;3.67;;;;;;;7.46;64.25;101100.25;5047143;28;20075;-77
2023/04/13 06:21:17;;;;;;;11.77;4.18;;;;;;;7.44;64.14;101124.53;5043218;28;20828;-78
2023/04/13 06:23:43;;;;;;;9.32;3.95;;;;;;;7.42;64.41;101114.97;5043558;28;20513;-79
2023/04/13 06:26:10;;;;;;;10.77;2.80;;;;;;;7.33;64.10;101092.47;5039701;28;20049;-79
2023/04/13 06:28:37;;;;;;;11.60;3.72;;;;;;;7.40;64.47;101124.53;5045783;28;20056;-78
2023/04/13 06:31:05;;;;;;;8.02;2.75;;;;;;;7.40;64.45;101128.00;5044340;28;20111;-79
2023/04/13 06:33:32;;;;;;;11.55;3.47;;;;;;;7.42;64.25;101140.97;5045306;28;20052;-78
2023/04/13 06:36:00;;;;;;;17.50;2.75;;;;;;;7.42;64.20;101144.44;5045990;28;20453;-77
2023/04/13 06:38:27;;;;;;;7.75;3.20;;;;;;;7.43;64.28;101146.19;5041277;28;20053;-78
2023/04/13 06:40:54;;;;;;;13.65;3.60;;;;;;;7.43;64.42;101140.13;5044397;28;20060;-78
2023/04/13 06:43:21;;;;;;;8.70;2.67;;;;;;;7.43;64.40;101147.94;5042591;28;20052;-78
2023/04/13 06:45:48;;;;;;;13.82;3.08;;;;;;;7.43;64.75;101154.00;5036550;28;20052;-78
2023/04/13 06:48:15;;;;;;;9.13;2.88;;;;;;;7.45;64.90;101125.38;5053665;28;20486;-78
2023/04/13 06:50:43;;;;;;;9.63;3.22;;;;;;;7.46;64.65;101134.03;5042474;28;20045;-79
2023/04/13 06:53:13;;;;;;;11.48;2.97;;;;;;;7.46;65.01;101136.63;5041045;28;20092;-78
2023/04/13 06:55:39;;;;;;;8.40;2.88;;;;;;;7.46;64.72;101147.94;5039049;28;20485;-78
2023/04/13 06:58:06;;;;;;;17.48;4.45;;;;;;;7.46;64.33;101149.63;5036969;28;20087;-78
2023/04/13 07:00:33;;;;;;;8.10;2.40;;;;;;;7.39;64.67;101130.59;5038179;28;20068;-78
2023/04/13 07:03:00;;;;;;;9.95;2.70;;;;;;;7.43;64.97;101146.19;5043581;28;20716;-78
2023/04/13 07:05:27;;;;;;;15.73;3.45;;;;;;;7.41;64.60;101145.31;5042063;28;20076;-78
2023/04/13 07:07:54;;;;;;;12.23;3.92;;;;;;;7.41;64.93;101145.31;5042854;28;20423;-78
2023/04/13 07:10:23;;;;;;;13.00;3.38;;;;;;;7.40;64.72;101147.94;5048027;28;20049;-79
2023/04/13 07:12:50;;;;;;;13.65;3.30;;;;;;;7.39;64.56;101141.84;5041096;28;20049;-79
2023/04/13 07:15:17;;;;;;;16.13;3.95;;;;;;;7.39;64.86;101141.84;5039723;28;20056;-79
2023/04/13 07:17:44;;;;;;;11.43;3.63;;;;;;;7.37;64.45;101148.78;5039044;28;20386;-78
2023/04/13 07:20:11;;;;;;;12.20;2.78;;;;;;;7.39;64.81;101172.16;5042801;28;20549;-78
2023/04/13 07:22:38;;;;;;;11.05;3.65;;;;;;;7.41;65.24;101167.84;5044793;28;20060;-79
2023/04/13 07:25:06;;;;;;;16.58;4.13;;;;;;;7.42;65.12;101167.84;5040743;28;20060;-78
2023/04/13 07:27:34;;;;;;;10.70;3.20;;;;;;;7.42;64.77;101162.63;5039197;28;20048;-79
2023/04/13 07:30:01;;;;;;;8.32;2.90;;;;;;;7.42;65.04;101160.03;5049108;28;20057;-79
2023/04/13 07:32:28;;;;;;;12.02;3.28;;;;;;;7.36;65.14;101147.03;5038452;28;20049;-79
2023/04/13 07:34:59;;;;;;;16.30;2.95;;;;;;;7.48;64.99;101168.69;5048389;28;20043;-78
2023/04/13 07:37:26;;;;;;;17.20;4.38;;;;;;;7.24;65.07;101123.66;5037869;28;20121;-78
2023/04/13 07:39:53;;;;;;;13.02;3.38;;;;;;;7.50;65.17;101166.97;5044567;28;20050;-78
2023/04/13 07:42:20;;;;;;;12.13;3.83;;;;;;;7.48;64.74;101146.16;5035793;28;20045;-77
2023/04/13 07:44:51;;;;;;;17.75;3.97;;;;;;;7.54;65.04;101155.72;5039483;28;20045;-79
2023/04/13 07:47:18;;;;;;;10.68;3.35;;;;;;;7.57;65.09;101166.09;5040653;28;20464;-78
2023/04/13 07:49:45;;;;;;;13.98;2.78;;;;;;;7.59;64.75;101164.38;5043415;28;20052;-77
2023/04/13 07:52:11;;;;;;;13.65;3.25;;;;;;;7.61;64.85;101165.25;5038996;28;20052;-79
2023/04/13 07:54:38;;;;;;;14.93;2.78;;;;;;;7.62;64.91;101153.97;5044692;28;20045;-78
2023/04/13 07:57:05;;;;;;;13.20;4.72;;;;;;;7.66;65.02;101167.00;5043559;28;20049;-78
2023/04/13 07:59:32;;;;;;;13.18;3.58;;;;;;;7.64;65.29;101157.44;5045368;28;20045;-78
2023/04/13 08:02:04;;;;;;;10.43;3.72;;;;;;;7.69;64.90;101166.13;5037901;28;20084;-78
2023/04/13 08:04:31;;;;;;;16.63;4.03;;;;;;;7.76;65.08;101178.25;5046219;28;20049;-78
2023/04/13 08:07:03;;;;;;;9.35;3.47;;;;;;;7.76;64.68;101161.78;5043032;28;20107;-78
2023/04/13 08:09:33;;;;;;;8.82;2.63;;;;;;;7.83;64.75;101176.53;5045619;28;20410;-77
2023/04/13 08:12:00;;;;;;;10.80;3.20;;;;;;;7.83;64.48;101166.97;5042458;28;20048;-78
2023/04/13 08:14:26;;;;;;;11.18;3.97;;;;;;;7.88;64.60;101183.47;5040906;28;20086;-78
2023/04/13 08:16:53;;;;;;;9.07;3.88;;;;;;;7.91;64.15;101176.50;5038943;28;20132;-78
2023/04/13 08:19:22;;;;;;;16.95;4.45;;;;;;;7.94;64.14;101182.59;5049689;28;20049;-76
2023/04/13 08:21:50;;;;;;;11.68;5.07;;;;;;;7.95;64.21;101184.31;5048446;28;20052;-77
2023/04/13 08:24:19;;;;;;;9.45;4.22;;;;;;;7.98;63.95;101197.31;5046304;28;20132;-78
2023/04/13 08:26:46;;;;;;;14.30;4.68;;;;;;;8.00;64.54;101192.13;5051256;28;20497;-79
2023/04/13 08:29:14;;;;;;;10.18;3.00;;;;;;;7.96;64.46;101191.22;5048976;28;20482;-79
2023/04/13 08:31:41;;;;;;;10.82;4.07;;;;;;;8.07;64.21;101204.22;5050482;28;20077;-78
2023/04/13 08:34:09;;;;;;;9.07;4.55;;;;;;;8.10;63.95;101209.44;5050727;28;20055;-78
2023/04/13 08:36:37;;;;;;;10.05;4.22;;;;;;;8.11;64.50;101211.16;5037466;28;20592;-78
2023/04/13 08:39:08;;;;;;;14.20;4.15;;;;;;;8.16;64.33;101224.16;5047870;28;20053;-78
2023/04/13 08:41:37;;;;;;;12.25;4.53;;;;;;;8.17;63.88;101218.09;5045095;28;20486;-80
2023/04/13 08:44:07;;;;;;;11.85;4.45;;;;;;;8.21;63.95;101227.63;5036379;28;20054;-79
2023/04/13 08:46:34;;;;;;;12.65;4.25;;;;;;;8.23;63.78;101231.97;5042608;28;20048;-78
2023/04/13 08:49:03;;;;;;;11.52;4.75;;;;;;;8.26;64.02;101237.16;5040090;28;20045;-78
2023/04/13 08:51:30;;;;;;;10.57;4.32;;;;;;;8.29;63.92;101226.75;5048067;28;20049;-79
2023/04/13 08:53:59;;;;;;;10.18;4.75;;;;;;;8.31;63.74;101225.03;5048293;28;20052;-78
2023/04/13 08:56:27;;;;;;;17.55;4.75;;;;;;;8.33;63.51;101230.22;5050507;28;20055;-78
2023/04/13 08:58:58;;;;;;;12.45;5.10;;;;;;;8.34;63.78;101235.44;5046256;28;20050;-79
2023/04/13 09:01:27;;;;;;;10.35;4.20;;;;;;;8.32;63.51;101231.94;5042161;28;20127;-79
2023/04/13 09:04:01;;;;;;;12.95;4.30;;;;;;;8.34;63.14;101230.22;5047807;28;20050;-79
2023/04/13 09:06:34;;;;;;;11.90;4.07;;;;;;;8.33;63.19;101235.41;5037624;28;20049;-79
2023/04/13 09:09:04;;;;;;;15.15;4.72;;;;;;;8.33;63.43;101244.09;5040162;28;20278;-78
2023/04/13 09:11:31;;;;;;;16.63;4.30;;;;;;;8.35;63.71;101251.91;5036022;28;20057;-78
2023/04/13 09:13:58;;;;;;;15.25;4.50;;;;;;;8.38;63.63;101258.84;5042441;28;20135;-79
2023/04/13 09:16:26;;;;;;;13.85;4.25;;;;;;;8.40;63.26;101265.81;5042498;28;20128;-78
2023/04/13 09:18:54;;;;;;;9.50;3.92;;;;;;;8.41;63.42;101277.09;5044530;28;20052;-78
2023/04/13 09:21:22;;;;;;;15.05;5.13;;;;;;;8.44;63.66;101277.94;5051350;28;20086;-78
2023/04/13 09:23:54;;;;;;;8.05;4.85;;;;;;;8.45;63.07;101284.03;5043464;28;20508;-79
2023/04/13 09:26:22;;;;;;;14.98;5.38;;;;;;;8.43;63.35;101281.44;5035382;28;20088;-78
2023/04/13 09:28:51;;;;;;;17.98;5.38;;;;;;;8.41;63.31;101283.16;5051424;28;20048;-78
2023/04/13 09:31:18;;;;;;;8.48;4.50;;;;;;;8.42;63.27;101297.03;5051115;28;20136;-79
2023/04/13 09:33:47;;;;;;;14.43;4.57;;;;;;;8.40;63.40;101302.25;5037414;28;20053;-78
2023/04/13 09:36:16;;;;;;;11.45;4.55;;;;;;;8.39;63.20;101295.31;5042709;28;20059;-78
2023/04/13 09:38:44;;;;;;;8.73;4.53;;;;;;;8.38;63.04;101298.75;5034842;28;20045;-78
2023/04/13 09:41:11;;;;;;;9.73;4.50;;;;;;;8.35;62.99;101296.16;5034829;28;20453;-80
2023/04/13 09:43:40;;;;;;;15.60;4.88;;;;;;;8.32;63.11;101294.41;5040259;28;20048;-79
2023/04/13 09:46:12;;;;;;;16.20;5.60;;;;;;;8.24;63.42;101283.16;5039568;28;20418;-79
2023/04/13 09:48:40;;;;;;;17.20;6.03;;;;;;;8.26;63.48;101297.03;5037704;28;20095;-78
2023/04/13 09:51:08;;;;;;;7.03;4.45;;;;;;;8.22;63.55;101287.47;5046736;28;20156;-76
2023/04/13 09:53:42;;;;;;;11.68;4.38;;;;;;;8.26;63.58;101288.38;5036958;28;20083;-78
2023/04/13 09:56:09;;;;;;;9.77;4.55;;;;;;;8.19;63.28;101273.59;5043651;28;20052;-78
2023/04/13 09:58:43;;;;;;;11.82;4.40;;;;;;;8.21;63.74;101277.94;5046820;28;20049;-78
2023/04/13 10:01:10;;;;;;;16.58;4.63;;;;;;;8.18;63.47;101275.34;5036965;28;20148;-78
2023/04/13 10:03:38;;;;;;;14.77;5.13;;;;;;;8.07;63.78;101261.47;5047888;28;20048;-79
2023/04/13 10:06:06;;;;;;;11.63;4.97;;;;;;;8.16;64.04;101284.88;5043961;28;20042;-77
2023/04/13 10:08:34;;;;;;;10.85;4.15;;;;;;;8.07;63.89;101270.13;5052628;28;20052;-79
2023/04/13 10:11:03;;;;;;;13.60;5.50;;;;;;;8.15;64.19;101284.91;5046605;28;20053;-78
2023/04/13 10:13:34;;;;;;;12.60;5.75;;;;;;;8.13;64.49;101292.69;5049821;28;20422;-78
2023/04/13 10:16:37;;;;;;;14.20;5.40;;;;;;;8.11;64.47;101295.31;5044525;28;20054;-78
2023/04/13 10:19:10;;;;;;;13.57;6.22;;;;;;;8.06;64.77;101288.38;5034302;28;20058;-79
2023/04/13 10:21:39;;;;;;;17.77;6.07;;;;;;;8.01;64.74;101298.75;5034335;28;20053;-77
2023/04/13 10:24:10;;;;;;;15.88;6.15;;;;;;;7.98;65.28;101308.31;5034567;28;20132;-78
2023/04/13 10:26:37;;;;;;;14.50;4.63;;;;;;;7.95;65.03;101316.13;5037096;28;20057;-77
2023/04/13 10:29:05;;;;;;;15.68;5.53;;;;;;;7.92;65.04;101310.91;5046797;28;20049;-77
2023/04/13 10:31:37;;;;;;;10.60;4.10;;;;;;;7.91;64.96;101312.63;5049787;28;20045;-77
2023/04/13 10:34:06;;;;;;;15.02;5.50;;;;;;;7.84;65.38;101309.16;5042288;28;20084;-77
2023/04/13 10:36:40;;;;;;;12.85;5.40;;;;;;;7.81;65.86;101319.56;5051473;28;20102;-77
2023/04/13 10:39:08;;;;;;;15.43;6.23;;;;;;;7.74;66.11;101312.63;5033690;28;20045;-77
2023/04/13 10:41:36;;;;;;;12.00;5.00;;;;;;;7.68;66.11;101302.19;5032859;28;20049;-77
2023/04/13 10:44:05;;;;;;;15.55;5.25;;;;;;;7.65;66.66;101308.25;5034900;28;20132;-77
2023/04/13 10:46:33;;;;;;;13.52;4.70;;;;;;;7.63;66.39;101298.72;5045415;28;20052;-78
2023/04/13 10:49:02;;;;;;;14.77;4.18;;;;;;;7.62;66.67;101296.97;5039734;28;20844;-78
2023/04/13 10:51:40;;;;;;;11.00;4.22;;;;;;;7.61;66.61;101298.72;5041682;28;20056;-75
2023/04/13 10:54:08;;;;;;;9.50;4.45;;;;;;;7.55;66.64;101290.03;5041978;28;20041;-77
2023/04/13 10:56:35;;;;;;;11.77;5.05;;;;;;;7.61;67.06;101295.25;5049153;28;20104;-77
2023/04/13 10:59:03;;;;;;;10.30;4.60;;;;;;;7.58;67.13;101290.91;5047234;28;20056;-78
2023/04/13 11:01:30;;;;;;;15.45;5.30;;;;;;;7.56;67.25;101289.16;5040793;28;20049;-77
2023/04/13 11:04:02;;;;;;;12.82;3.72;;;;;;;7.53;67.48;101296.97;5043545;28;20076;-76
2023/04/13 11:06:29;;;;;;;8.88;4.22;;;;;;;7.49;67.70;101295.22;5040446;28;20421;-80
2023/04/13 11:09:05;;;;;;;11.43;4.50;;;;;;;7.42;67.48;101297.78;5040342;28;20409;-77
2023/04/13 11:11:32;;;;;;;;;;;;;;;7.37;67.49;101304.72;5040502;28;20409;-80
2023/04/13 11:13:59;;;;;;;10.82;4.55;;;;;;;7.29;67.99;101303.84;5039013;28;19927;-77
2023/04/13 11:16:26;;;;;;;11.85;5.13;;;;;;;7.26;68.09;101329.81;5043882;28;20046;-77
2023/04/13 11:19:01;;;;;;;13.25;5.45;;;;;;;7.25;68.30;101329.78;5047410;28;20045;-79
2023/04/13 11:21:28;;;;;;;14.10;4.60;;;;;;;7.12;67.86;101315.91;5046245;28;20448;-78
2023/04/13 11:24:01;;;;;;;15.00;4.97;;;;;;;7.18;68.47;101339.28;5046278;28;20489;-78
2023/04/13 11:26:33;;;;;;;9.15;4.63;;;;;;;7.16;68.76;101338.41;5042182;28;20498;-77
2023/04/13 11:29:02;;;;;;;16.48;5.80;;;;;;;7.13;68.82;101339.25;5033001;28;20107;-77
2023/04/13 11:31:37;;;;;;;11.52;5.10;;;;;;;7.12;69.04;101345.34;5033292;28;20048;-77
2023/04/13 11:34:05;;;;;;;14.23;5.53;;;;;;;7.08;69.24;101351.34;5042508;28;20068;-76